sensor_id;sensor_type;location;lat;lon;timestamp;temperature;humidity
20180;DHT22;10249;48.900;9.090;2022-08-02T00:00:16;19.50;99.90
20180;DHT22;10249;48.900;9.090;2022-08-02T00:02:44;19.60;99.90
20180;DHT22;10249;48.900;9.090;2022-08-02T00:05:11;19.50;99.90
20180;DHT22;10249;48.900;9.090;2022-08-02T00:07:39;19.50;99.90
20180;DHT22;10249;48.900;9.090;2022-08-02T00:10:07;19.40;99.90
20180;DHT22;10249;48.900;9.090;2022-08-02T00:12:36;19.30;99.90
20180;DHT22;10249;48.900;9.090;2022-08-02T00:15:03;19.40;99.90
20180;DHT22;10249;48.900;9.090;2022-08-02T00:17:30;19.30;99.90
20180;DHT22;10249;48.900;9.090;2022-08-02T00:19:57;19.60;99.90
20180;DHT22;10249;48.900;9.090;2022-08-02T00:22:24;19.30;99.90
20180;DHT22;10249;48.900;9.090;2022-08-02T00:24:50;19.30;99.90
20180;DHT22;10249;48.900;9.090;2022-08-02T00:27:17;19.20;99.90
20180;DHT22;10249;48.900;9.090;2022-08-02T00:29:45;19.20;99.90
20180;DHT22;10249;48.900;9.090;2022-08-02T00:32:12;19.30;99.90
20180;DHT22;10249;48.900;9.090;2022-08-02T00:34:38;19.10;99.90
20180;DHT22;10249;48.900;9.090;2022-08-02T00:37:05;19.20;99.90
20180;DHT22;10249;48.900;9.090;2022-08-02T00:39:32;19.10;99.90
20180;DHT22;10249;48.900;9.090;2022-08-02T00:41:58;19.10;99.90
20180;DHT22;10249;48.900;9.090;2022-08-02T00:44:25;19.50;99.90
20180;DHT22;10249;48.900;9.090;2022-08-02T00:46:53;19.00;99.90
20180;DHT22;10249;48.900;9.090;2022-08-02T00:49:20;19.00;99.90
20180;DHT22;10249;48.900;9.090;2022-08-02T00:51:47;19.10;99.90
20180;DHT22;10249;48.900;9.090;2022-08-02T00:54:14;19.00;99.90
20180;DHT22;10249;48.900;9.090;2022-08-02T00:56:40;19.00;99.90
20180;DHT22;10249;48.900;9.090;2022-08-02T00:59:07;18.90;99.90
20180;DHT22;10249;48.900;9.090;2022-08-02T01:01:34;18.90;99.90
20180;DHT22;10249;48.900;9.090;2022-08-02T01:04:10;18.80;99.90
20180;DHT22;10249;48.900;9.090;2022-08-02T01:06:37;18.90;99.90
20180;DHT22;10249;48.900;9.090;2022-08-02T01:09:05;18.80;99.90
20180;DHT22;10249;48.900;9.090;2022-08-02T01:11:32;18.70;99.90
20180;DHT22;10249;48.900;9.090;2022-08-02T01:14:02;18.80;99.90
20180;DHT22;10249;48.900;9.090;2022-08-02T01:16:32;18.80;99.90
20180;DHT22;10249;48.900;9.090;2022-08-02T01:19:14;18.80;99.90
20180;DHT22;10249;48.900;9.090;2022-08-02T01:21:53;18.80;99.90
20180;DHT22;10249;48.900;9.090;2022-08-02T01:24:36;18.70;99.90
20180;DHT22;10249;48.900;9.090;2022-08-02T01:27:19;18.80;99.90
20180;DHT22;10249;48.900;9.090;2022-08-02T01:29:55;18.60;99.90
20180;DHT22;10249;48.900;9.090;2022-08-02T01:32:28;18.60;99.90
20180;DHT22;10249;48.900;9.090;2022-08-02T01:35:01;18.60;99.90
20180;DHT22;10249;48.900;9.090;2022-08-02T01:37:33;18.60;99.90
20180;DHT22;10249;48.900;9.090;2022-08-02T01:40:04;18.60;99.90
20180;DHT22;10249;48.900;9.090;2022-08-02T01:42:32;18.50;99.90
20180;DHT22;10249;48.900;9.090;2022-08-02T01:45:02;18.50;99.90
20180;DHT22;10249;48.900;9.090;2022-08-02T01:47:32;18.50;99.90
20180;DHT22;10249;48.900;9.090;2022-08-02T01:50:00;18.40;99.90
20180;DHT22;10249;48.900;9.090;2022-08-02T01:52:31;18.40;99.90
20180;DHT22;10249;48.900;9.090;2022-08-02T01:55:02;18.40;99.90
20180;DHT22;10249;48.900;9.090;2022-08-02T01:57:35;18.40;99.90
20180;DHT22;10249;48.900;9.090;2022-08-02T02:00:07;18.30;99.90
20180;DHT22;10249;48.900;9.090;2022-08-02T02:02:37;18.30;99.90
20180;DHT22;10249;48.900;9.090;2022-08-02T02:05:05;18.30;99.90
20180;DHT22;10249;48.900;9.090;2022-08-02T02:07:37;18.30;99.90
20180;DHT22;10249;48.900;9.090;2022-08-02T02:10:05;18.30;99.90
20180;DHT22;10249;48.900;9.090;2022-08-02T02:12:34;18.30;99.90
20180;DHT22;10249;48.900;9.090;2022-08-02T02:15:05;18.30;99.90
20180;DHT22;10249;48.900;9.090;2022-08-02T02:17:32;18.30;99.90
20180;DHT22;10249;48.900;9.090;2022-08-02T02:20:00;18.20;99.90
20180;DHT22;10249;48.900;9.090;2022-08-02T02:22:28;18.20;99.90
20180;DHT22;10249;48.900;9.090;2022-08-02T02:24:55;18.10;99.90
20180;DHT22;10249;48.900;9.090;2022-08-02T02:27:21;18.10;99.90
20180;DHT22;10249;48.900;9.090;2022-08-02T02:29:50;18.20;99.90
20180;DHT22;10249;48.900;9.090;2022-08-02T02:32:20;18.30;99.90
20180;DHT22;10249;48.900;9.090;2022-08-02T02:34:49;18.10;99.90
20180;DHT22;10249;48.900;9.090;2022-08-02T02:37:18;18.10;99.90
20180;DHT22;10249;48.900;9.090;2022-08-02T02:39:49;18.10;99.90
20180;DHT22;10249;48.900;9.090;2022-08-02T02:42:18;18.00;99.90
20180;DHT22;10249;48.900;9.090;2022-08-02T02:44:46;18.00;99.90
20180;DHT22;10249;48.900;9.090;2022-08-02T02:47:14;17.90;99.90
20180;DHT22;10249;48.900;9.090;2022-08-02T02:49:45;17.90;99.90
20180;DHT22;10249;48.900;9.090;2022-08-02T02:52:14;18.00;99.90
20180;DHT22;10249;48.900;9.090;2022-08-02T02:54:43;18.00;99.90
20180;DHT22;10249;48.900;9.090;2022-08-02T02:57:11;17.90;99.90
20180;DHT22;10249;48.900;9.090;2022-08-02T02:59:39;17.80;99.90
20180;DHT22;10249;48.900;9.090;2022-08-02T03:02:06;17.80;99.90
20180;DHT22;10249;48.900;9.090;2022-08-02T03:04:35;17.80;99.90
20180;DHT22;10249;48.900;9.090;2022-08-02T03:07:04;17.70;99.90
20180;DHT22;10249;48.900;9.090;2022-08-02T03:09:31;17.60;99.90
20180;DHT22;10249;48.900;9.090;2022-08-02T03:11:58;17.60;99.90
20180;DHT22;10249;48.900;9.090;2022-08-02T03:14:25;17.60;99.90
20180;DHT22;10249;48.900;9.090;2022-08-02T03:16:53;17.50;99.90
20180;DHT22;10249;48.900;9.090;2022-08-02T03:19:21;17.50;99.90
20180;DHT22;10249;48.900;9.090;2022-08-02T03:21:49;17.50;99.90
20180;DHT22;10249;48.900;9.090;2022-08-02T03:24:18;17.60;99.90
20180;DHT22;10249;48.900;9.090;2022-08-02T03:26:44;17.50;99.90
20180;DHT22;10249;48.900;9.090;2022-08-02T03:29:11;17.50;99.90
20180;DHT22;10249;48.900;9.090;2022-08-02T03:31:40;17.40;99.90
20180;DHT22;10249;48.900;9.090;2022-08-02T03:34:07;17.40;99.90
20180;DHT22;10249;48.900;9.090;2022-08-02T03:36:35;17.40;99.90
20180;DHT22;10249;48.900;9.090;2022-08-02T03:39:03;17.50;99.90
20180;DHT22;10249;48.900;9.090;2022-08-02T03:41:32;17.40;99.90
20180;DHT22;10249;48.900;9.090;2022-08-02T03:44:01;17.40;99.90
20180;DHT22;10249;48.900;9.090;2022-08-02T03:46:28;17.40;99.90
20180;DHT22;10249;48.900;9.090;2022-08-02T03:48:55;17.40;99.90
20180;DHT22;10249;48.900;9.090;2022-08-02T03:51:23;17.40;99.90
20180;DHT22;10249;48.900;9.090;2022-08-02T03:53:50;17.40;99.90
20180;DHT22;10249;48.900;9.090;2022-08-02T03:56:17;17.40;99.90
20180;DHT22;10249;48.900;9.090;2022-08-02T03:58:45;17.40;99.90
20180;DHT22;10249;48.900;9.090;2022-08-02T04:01:12;17.40;99.90
20180;DHT22;10249;48.900;9.090;2022-08-02T04:03:39;17.40;99.90
20180;DHT22;10249;48.900;9.090;2022-08-02T04:06:06;17.30;99.90
20180;DHT22;10249;48.900;9.090;2022-08-02T04:08:32;17.40;99.90
20180;DHT22;10249;48.900;9.090;2022-08-02T04:10:59;17.30;99.90
20180;DHT22;10249;48.900;9.090;2022-08-02T04:13:43;17.30;99.90
20180;DHT22;10249;48.900;9.090;2022-08-02T04:16:13;17.30;99.90
20180;DHT22;10249;48.900;9.090;2022-08-02T04:18:45;17.30;99.90
20180;DHT22;10249;48.900;9.090;2022-08-02T04:21:15;17.30;99.90
20180;DHT22;10249;48.900;9.090;2022-08-02T04:23:45;17.50;99.90
20180;DHT22;10249;48.900;9.090;2022-08-02T04:26:12;17.30;99.90
20180;DHT22;10249;48.900;9.090;2022-08-02T04:28:40;17.30;99.90
20180;DHT22;10249;48.900;9.090;2022-08-02T04:31:10;17.30;99.90
20180;DHT22;10249;48.900;9.090;2022-08-02T04:33:37;17.30;99.90
20180;DHT22;10249;48.900;9.090;2022-08-02T04:36:05;17.60;99.90
20180;DHT22;10249;48.900;9.090;2022-08-02T04:38:32;17.50;99.90
20180;DHT22;10249;48.900;9.090;2022-08-02T04:40:59;17.50;99.90
20180;DHT22;10249;48.900;9.090;2022-08-02T04:43:26;17.70;99.90
20180;DHT22;10249;48.900;9.090;2022-08-02T04:45:54;17.70;99.90
20180;DHT22;10249;48.900;9.090;2022-08-02T04:48:22;17.70;99.90
20180;DHT22;10249;48.900;9.090;2022-08-02T04:50:49;17.80;99.90
20180;DHT22;10249;48.900;9.090;2022-08-02T04:53:16;17.80;99.90
20180;DHT22;10249;48.900;9.090;2022-08-02T04:55:43;17.90;99.90
20180;DHT22;10249;48.900;9.090;2022-08-02T04:58:10;18.00;99.90
20180;DHT22;10249;48.900;9.090;2022-08-02T05:00:37;18.10;99.90
20180;DHT22;10249;48.900;9.090;2022-08-02T05:03:04;18.10;99.90
20180;DHT22;10249;48.900;9.090;2022-08-02T05:05:32;18.00;99.90
20180;DHT22;10249;48.900;9.090;2022-08-02T05:07:59;18.00;99.90
20180;DHT22;10249;48.900;9.090;2022-08-02T05:10:25;18.20;99.90
20180;DHT22;10249;48.900;9.090;2022-08-02T05:12:53;18.20;99.90
20180;DHT22;10249;48.900;9.090;2022-08-02T05:15:20;18.20;99.90
20180;DHT22;10249;48.900;9.090;2022-08-02T05:17:47;18.30;99.90
20180;DHT22;10249;48.900;9.090;2022-08-02T05:20:15;18.40;99.90
20180;DHT22;10249;48.900;9.090;2022-08-02T05:22:43;18.50;99.90
20180;DHT22;10249;48.900;9.090;2022-08-02T05:25:10;18.60;99.90
20180;DHT22;10249;48.900;9.090;2022-08-02T05:27:37;18.60;99.90
20180;DHT22;10249;48.900;9.090;2022-08-02T05:30:04;18.60;99.90
20180;DHT22;10249;48.900;9.090;2022-08-02T05:32:31;18.60;99.90
20180;DHT22;10249;48.900;9.090;2022-08-02T05:34:59;18.60;99.90
20180;DHT22;10249;48.900;9.090;2022-08-02T05:37:26;18.60;99.90
20180;DHT22;10249;48.900;9.090;2022-08-02T05:39:54;18.70;99.90
20180;DHT22;10249;48.900;9.090;2022-08-02T05:42:21;18.70;99.90
20180;DHT22;10249;48.900;9.090;2022-08-02T05:44:47;18.70;99.90
20180;DHT22;10249;48.900;9.090;2022-08-02T05:47:14;18.80;99.90
20180;DHT22;10249;48.900;9.090;2022-08-02T05:49:41;18.80;99.90
20180;DHT22;10249;48.900;9.090;2022-08-02T05:52:13;18.90;99.90
20180;DHT22;10249;48.900;9.090;2022-08-02T05:54:47;18.90;99.90
20180;DHT22;10249;48.900;9.090;2022-08-02T05:57:26;18.80;99.90
20180;DHT22;10249;48.900;9.090;2022-08-02T06:00:03;19.00;99.90
20180;DHT22;10249;48.900;9.090;2022-08-02T06:02:49;19.00;99.90
20180;DHT22;10249;48.900;9.090;2022-08-02T06:05:21;19.00;99.90
20180;DHT22;10249;48.900;9.090;2022-08-02T06:07:49;19.10;99.90
20180;DHT22;10249;48.900;9.090;2022-08-02T06:10:19;19.30;99.90
20180;DHT22;10249;48.900;9.090;2022-08-02T06:12:51;19.20;99.90
20180;DHT22;10249;48.900;9.090;2022-08-02T06:15:20;19.40;99.90
20180;DHT22;10249;48.900;9.090;2022-08-02T06:17:46;19.30;99.90
20180;DHT22;10249;48.900;9.090;2022-08-02T06:20:14;19.50;99.90
20180;DHT22;10249;48.900;9.090;2022-08-02T06:22:41;19.50;99.90
20180;DHT22;10249;48.900;9.090;2022-08-02T06:25:10;19.50;99.90
20180;DHT22;10249;48.900;9.090;2022-08-02T06:27:38;19.70;99.90
20180;DHT22;10249;48.900;9.090;2022-08-02T06:30:08;19.80;99.90
20180;DHT22;10249;48.900;9.090;2022-08-02T06:32:35;19.80;99.90
20180;DHT22;10249;48.900;9.090;2022-08-02T06:35:03;19.60;99.90
20180;DHT22;10249;48.900;9.090;2022-08-02T06:37:36;19.80;99.90
20180;DHT22;10249;48.900;9.090;2022-08-02T06:40:09;19.90;99.90
20180;DHT22;10249;48.900;9.090;2022-08-02T06:42:44;20.00;99.90
20180;DHT22;10249;48.900;9.090;2022-08-02T06:45:14;20.10;99.90
20180;DHT22;10249;48.900;9.090;2022-08-02T06:47:41;20.20;99.90
20180;DHT22;10249;48.900;9.090;2022-08-02T06:50:08;20.40;99.90
20180;DHT22;10249;48.900;9.090;2022-08-02T06:52:36;20.20;99.90
20180;DHT22;10249;48.900;9.090;2022-08-02T06:55:04;20.20;99.90
20180;DHT22;10249;48.900;9.090;2022-08-02T06:57:32;20.30;99.90
20180;DHT22;10249;48.900;9.090;2022-08-02T06:59:59;20.50;99.90
20180;DHT22;10249;48.900;9.090;2022-08-02T07:02:29;20.50;99.90
20180;DHT22;10249;48.900;9.090;2022-08-02T07:04:56;20.40;99.90
20180;DHT22;10249;48.900;9.090;2022-08-02T07:07:23;20.60;99.90
20180;DHT22;10249;48.900;9.090;2022-08-02T07:09:49;20.90;99.90
20180;DHT22;10249;48.900;9.090;2022-08-02T07:12:16;21.00;99.90
20180;DHT22;10249;48.900;9.090;2022-08-02T07:14:43;21.20;99.90
20180;DHT22;10249;48.900;9.090;2022-08-02T07:17:10;21.30;99.90
20180;DHT22;10249;48.900;9.090;2022-08-02T07:19:38;21.40;99.90
20180;DHT22;10249;48.900;9.090;2022-08-02T07:22:05;21.40;99.90
20180;DHT22;10249;48.900;9.090;2022-08-02T07:24:32;21.50;99.90
20180;DHT22;10249;48.900;9.090;2022-08-02T07:26:58;21.60;99.90
20180;DHT22;10249;48.900;9.090;2022-08-02T07:29:25;21.40;99.90
20180;DHT22;10249;48.900;9.090;2022-08-02T07:31:52;21.40;99.90
20180;DHT22;10249;48.900;9.090;2022-08-02T07:34:19;21.40;99.90
20180;DHT22;10249;48.900;9.090;2022-08-02T07:36:47;21.50;99.90
20180;DHT22;10249;48.900;9.090;2022-08-02T07:39:14;21.70;99.90
20180;DHT22;10249;48.900;9.090;2022-08-02T07:41:40;21.60;99.90
20180;DHT22;10249;48.900;9.090;2022-08-02T07:44:07;21.70;99.90
20180;DHT22;10249;48.900;9.090;2022-08-02T07:46:34;21.90;99.90
20180;DHT22;10249;48.900;9.090;2022-08-02T07:49:01;22.20;99.90
20180;DHT22;10249;48.900;9.090;2022-08-02T07:51:27;22.20;99.90
20180;DHT22;10249;48.900;9.090;2022-08-02T07:53:57;22.40;99.90
20180;DHT22;10249;48.900;9.090;2022-08-02T07:56:24;22.60;99.90
20180;DHT22;10249;48.900;9.090;2022-08-02T07:58:50;22.40;99.90
20180;DHT22;10249;48.900;9.090;2022-08-02T08:01:17;22.20;99.90
20180;DHT22;10249;48.900;9.090;2022-08-02T08:03:44;22.30;99.90
20180;DHT22;10249;48.900;9.090;2022-08-02T08:06:10;22.30;99.90
20180;DHT22;10249;48.900;9.090;2022-08-02T08:08:37;22.40;99.90
20180;DHT22;10249;48.900;9.090;2022-08-02T08:11:05;22.70;99.90
20180;DHT22;10249;48.900;9.090;2022-08-02T08:13:32;23.10;99.90
20180;DHT22;10249;48.900;9.090;2022-08-02T08:15:58;23.20;99.90
20180;DHT22;10249;48.900;9.090;2022-08-02T08:18:26;22.80;99.90
20180;DHT22;10249;48.900;9.090;2022-08-02T08:20:53;22.70;99.90
20180;DHT22;10249;48.900;9.090;2022-08-02T08:23:20;22.70;99.90
20180;DHT22;10249;48.900;9.090;2022-08-02T08:25:46;23.00;99.90
20180;DHT22;10249;48.900;9.090;2022-08-02T08:28:15;23.20;99.90
20180;DHT22;10249;48.900;9.090;2022-08-02T08:30:42;23.60;99.90
20180;DHT22;10249;48.900;9.090;2022-08-02T08:33:08;23.40;99.90
20180;DHT22;10249;48.900;9.090;2022-08-02T08:35:35;23.30;99.90
20180;DHT22;10249;48.900;9.090;2022-08-02T08:38:02;23.60;99.90
20180;DHT22;10249;48.900;9.090;2022-08-02T08:40:28;23.50;99.90
20180;DHT22;10249;48.900;9.090;2022-08-02T08:42:55;23.50;99.90
20180;DHT22;10249;48.900;9.090;2022-08-02T08:45:23;23.60;99.90
20180;DHT22;10249;48.900;9.090;2022-08-02T08:47:54;23.50;99.90
20180;DHT22;10249;48.900;9.090;2022-08-02T08:50:24;23.80;99.90
20180;DHT22;10249;48.900;9.090;2022-08-02T08:52:55;23.90;99.90
20180;DHT22;10249;48.900;9.090;2022-08-02T08:55:23;23.50;99.90
20180;DHT22;10249;48.900;9.090;2022-08-02T08:57:51;23.70;99.90
20180;DHT22;10249;48.900;9.090;2022-08-02T09:00:19;23.70;99.90
20180;DHT22;10249;48.900;9.090;2022-08-02T09:02:47;23.90;99.90
20180;DHT22;10249;48.900;9.090;2022-08-02T09:05:15;23.80;99.90
20180;DHT22;10249;48.900;9.090;2022-08-02T09:07:46;23.60;99.90
20180;DHT22;10249;48.900;9.090;2022-08-02T09:10:37;24.20;99.90
20180;DHT22;10249;48.900;9.090;2022-08-02T09:13:13;24.50;99.90
20180;DHT22;10249;48.900;9.090;2022-08-02T09:15:51;24.80;99.90
20180;DHT22;10249;48.900;9.090;2022-08-02T09:18:28;24.40;99.90
20180;DHT22;10249;48.900;9.090;2022-08-02T09:20:57;24.40;99.90
20180;DHT22;10249;48.900;9.090;2022-08-02T09:23:24;24.70;99.90
20180;DHT22;10249;48.900;9.090;2022-08-02T09:25:56;24.60;99.90
20180;DHT22;10249;48.900;9.090;2022-08-02T09:28:26;24.90;99.90
20180;DHT22;10249;48.900;9.090;2022-08-02T09:30:56;25.40;99.90
20180;DHT22;10249;48.900;9.090;2022-08-02T09:33:27;25.80;99.90
20180;DHT22;10249;48.900;9.090;2022-08-02T09:36:02;25.90;99.90
20180;DHT22;10249;48.900;9.090;2022-08-02T09:38:29;25.80;99.90
20180;DHT22;10249;48.900;9.090;2022-08-02T09:40:57;25.90;99.90
20180;DHT22;10249;48.900;9.090;2022-08-02T09:43:35;26.20;99.90
20180;DHT22;10249;48.900;9.090;2022-08-02T09:46:13;26.50;99.90
20180;DHT22;10249;48.900;9.090;2022-08-02T09:48:49;26.50;99.90
20180;DHT22;10249;48.900;9.090;2022-08-02T09:51:17;26.70;99.90
20180;DHT22;10249;48.900;9.090;2022-08-02T09:53:46;26.90;99.90
20180;DHT22;10249;48.900;9.090;2022-08-02T09:56:13;27.00;99.90
20180;DHT22;10249;48.900;9.090;2022-08-02T09:58:41;27.10;99.90
20180;DHT22;10249;48.900;9.090;2022-08-02T10:01:07;26.80;99.90
20180;DHT22;10249;48.900;9.090;2022-08-02T10:03:34;26.50;99.90
20180;DHT22;10249;48.900;9.090;2022-08-02T10:06:03;26.20;99.90
20180;DHT22;10249;48.900;9.090;2022-08-02T10:08:31;25.60;99.90
20180;DHT22;10249;48.900;9.090;2022-08-02T10:10:57;25.30;99.90
20180;DHT22;10249;48.900;9.090;2022-08-02T10:13:28;25.50;99.90
20180;DHT22;10249;48.900;9.090;2022-08-02T10:15:55;26.10;99.90
20180;DHT22;10249;48.900;9.090;2022-08-02T10:18:22;25.40;99.90
20180;DHT22;10249;48.900;9.090;2022-08-02T10:20:50;25.40;99.90
20180;DHT22;10249;48.900;9.090;2022-08-02T10:23:20;25.90;99.90
20180;DHT22;10249;48.900;9.090;2022-08-02T10:25:49;26.20;99.90
20180;DHT22;10249;48.900;9.090;2022-08-02T10:28:17;26.80;99.90
20180;DHT22;10249;48.900;9.090;2022-08-02T10:30:46;27.60;99.90
20180;DHT22;10249;48.900;9.090;2022-08-02T10:33:16;27.90;99.90
20180;DHT22;10249;48.900;9.090;2022-08-02T10:35:46;28.40;99.90
20180;DHT22;10249;48.900;9.090;2022-08-02T10:38:16;27.60;99.90
20180;DHT22;10249;48.900;9.090;2022-08-02T10:40:47;28.00;99.90
20180;DHT22;10249;48.900;9.090;2022-08-02T10:43:42;28.30;99.90
20180;DHT22;10249;48.900;9.090;2022-08-02T10:46:30;28.70;99.90
20180;DHT22;10249;48.900;9.090;2022-08-02T10:49:04;27.30;99.90
20180;DHT22;10249;48.900;9.090;2022-08-02T10:51:55;28.00;99.90
20180;DHT22;10249;48.900;9.090;2022-08-02T10:54:23;28.10;99.90
20180;DHT22;10249;48.900;9.090;2022-08-02T10:56:56;28.10;99.90
20180;DHT22;10249;48.900;9.090;2022-08-02T10:59:25;27.70;99.90
20180;DHT22;10249;48.900;9.090;2022-08-02T11:01:52;26.80;99.90
20180;DHT22;10249;48.900;9.090;2022-08-02T11:04:27;26.90;99.90
20180;DHT22;10249;48.900;9.090;2022-08-02T11:07:08;27.20;99.90
20180;DHT22;10249;48.900;9.090;2022-08-02T11:09:35;26.70;99.90
20180;DHT22;10249;48.900;9.090;2022-08-02T11:12:05;26.40;99.90
20180;DHT22;10249;48.900;9.090;2022-08-02T11:14:34;25.90;99.90
20180;DHT22;10249;48.900;9.090;2022-08-02T11:17:05;26.60;99.90
20180;DHT22;10249;48.900;9.090;2022-08-02T11:19:32;26.60;99.90
20180;DHT22;10249;48.900;9.090;2022-08-02T11:22:01;26.60;99.90
20180;DHT22;10249;48.900;9.090;2022-08-02T11:24:29;27.20;99.90
20180;DHT22;10249;48.900;9.090;2022-08-02T11:26:57;26.70;99.90
20180;DHT22;10249;48.900;9.090;2022-08-02T11:29:37;27.20;99.90
20180;DHT22;10249;48.900;9.090;2022-08-02T11:32:05;26.90;99.90
20180;DHT22;10249;48.900;9.090;2022-08-02T11:34:32;27.60;99.90
20180;DHT22;10249;48.900;9.090;2022-08-02T11:36:59;28.00;99.90
20180;DHT22;10249;48.900;9.090;2022-08-02T11:39:26;29.00;99.90
20180;DHT22;10249;48.900;9.090;2022-08-02T11:41:55;29.30;99.90
20180;DHT22;10249;48.900;9.090;2022-08-02T11:44:22;28.90;99.90
20180;DHT22;10249;48.900;9.090;2022-08-02T11:46:54;28.20;99.90
20180;DHT22;10249;48.900;9.090;2022-08-02T11:49:22;28.20;99.90
20180;DHT22;10249;48.900;9.090;2022-08-02T11:51:52;28.10;99.90
20180;DHT22;10249;48.900;9.090;2022-08-02T11:54:24;28.00;99.90
20180;DHT22;10249;48.900;9.090;2022-08-02T11:56:52;28.50;99.90
20180;DHT22;10249;48.900;9.090;2022-08-02T12:01:45;29.30;99.90
20180;DHT22;10249;48.900;9.090;2022-08-02T12:04:18;30.40;99.90
20180;DHT22;10249;48.900;9.090;2022-08-02T12:11:47;30.90;99.90
20180;DHT22;10249;48.900;9.090;2022-08-02T12:14:15;30.30;99.90
20180;DHT22;10249;48.900;9.090;2022-08-02T12:16:41;28.70;99.90
20180;DHT22;10249;48.900;9.090;2022-08-02T12:22:15;28.50;99.90
20180;DHT22;10249;48.900;9.090;2022-08-02T12:37:28;30.80;99.90
20180;DHT22;10249;48.900;9.090;2022-08-02T12:39:55;30.70;99.90
20180;DHT22;10249;48.900;9.090;2022-08-02T12:42:22;29.90;99.90
20180;DHT22;10249;48.900;9.090;2022-08-02T12:44:51;30.20;99.90
20180;DHT22;10249;48.900;9.090;2022-08-02T12:47:17;31.60;99.90
20180;DHT22;10249;48.900;9.090;2022-08-02T12:49:45;30.00;99.90
20180;DHT22;10249;48.900;9.090;2022-08-02T12:57:17;31.20;99.90
20180;DHT22;10249;48.900;9.090;2022-08-02T12:59:52;32.00;99.90
20180;DHT22;10249;48.900;9.090;2022-08-02T13:29:23;29.90;99.90
20180;DHT22;10249;48.900;9.090;2022-08-02T13:31:50;30.60;99.90
20180;DHT22;10249;48.900;9.090;2022-08-02T13:41:38;32.40;99.90
20180;DHT22;10249;48.900;9.090;2022-08-02T13:46:33;34.40;99.90
20180;DHT22;10249;48.900;9.090;2022-08-02T13:49:00;32.30;99.90
20180;DHT22;10249;48.900;9.090;2022-08-02T13:51:27;30.40;99.90
20180;DHT22;10249;48.900;9.090;2022-08-02T13:53:54;31.00;99.90
20180;DHT22;10249;48.900;9.090;2022-08-02T13:56:21;30.50;99.90
20180;DHT22;10249;48.900;9.090;2022-08-02T13:58:47;31.90;99.90
20180;DHT22;10249;48.900;9.090;2022-08-02T14:01:15;31.30;99.90
20180;DHT22;10249;48.900;9.090;2022-08-02T14:03:42;30.90;99.90
20180;DHT22;10249;48.900;9.090;2022-08-02T14:06:09;31.70;99.90
20180;DHT22;10249;48.900;9.090;2022-08-02T14:08:36;30.90;99.90
20180;DHT22;10249;48.900;9.090;2022-08-02T14:11:03;30.50;99.90
20180;DHT22;10249;48.900;9.090;2022-08-02T14:13:31;30.90;99.90
20180;DHT22;10249;48.900;9.090;2022-08-02T14:15:57;30.60;99.90
20180;DHT22;10249;48.900;9.090;2022-08-02T14:18:26;31.20;99.90
20180;DHT22;10249;48.900;9.090;2022-08-02T14:20:53;31.10;99.90
20180;DHT22;10249;48.900;9.090;2022-08-02T14:23:20;31.00;99.90
20180;DHT22;10249;48.900;9.090;2022-08-02T14:25:47;30.80;99.90
20180;DHT22;10249;48.900;9.090;2022-08-02T14:28:13;30.80;99.90
20180;DHT22;10249;48.900;9.090;2022-08-02T14:30:40;30.80;99.90
20180;DHT22;10249;48.900;9.090;2022-08-02T14:33:07;30.70;99.90
20180;DHT22;10249;48.900;9.090;2022-08-02T14:35:35;30.90;99.90
20180;DHT22;10249;48.900;9.090;2022-08-02T14:38:02;31.40;99.90
20180;DHT22;10249;48.900;9.090;2022-08-02T14:40:29;32.10;99.90
20180;DHT22;10249;48.900;9.090;2022-08-02T14:45:23;35.60;99.90
20180;DHT22;10249;48.900;9.090;2022-08-02T14:50:18;37.30;99.90
20180;DHT22;10249;48.900;9.090;2022-08-02T14:52:48;36.40;99.90
20180;DHT22;10249;48.900;9.090;2022-08-02T14:55:16;35.60;99.90
20180;DHT22;10249;48.900;9.090;2022-08-02T14:57:42;36.00;99.90
20180;DHT22;10249;48.900;9.090;2022-08-02T15:00:10;36.60;99.90
20180;DHT22;10249;48.900;9.090;2022-08-02T15:02:37;36.70;99.90
20180;DHT22;10249;48.900;9.090;2022-08-02T15:05:04;37.30;99.90
20180;DHT22;10249;48.900;9.090;2022-08-02T15:07:31;37.20;99.90
20180;DHT22;10249;48.900;9.090;2022-08-02T15:09:59;36.10;96.90
20180;DHT22;10249;48.900;9.090;2022-08-02T15:12:25;33.00;99.30
20180;DHT22;10249;48.900;9.090;2022-08-02T15:14:52;34.70;98.50
20180;DHT22;10249;48.900;9.090;2022-08-02T15:17:19;35.40;98.30
20180;DHT22;10249;48.900;9.090;2022-08-02T15:19:46;35.90;99.90
20180;DHT22;10249;48.900;9.090;2022-08-02T15:22:13;34.70;99.90
20180;DHT22;10249;48.900;9.090;2022-08-02T15:24:39;34.80;99.90
20180;DHT22;10249;48.900;9.090;2022-08-02T15:27:07;35.90;97.90
20180;DHT22;10249;48.900;9.090;2022-08-02T15:29:38;36.40;96.20
20180;DHT22;10249;48.900;9.090;2022-08-02T15:32:05;36.00;96.60
20180;DHT22;10249;48.900;9.090;2022-08-02T15:34:31;34.60;99.20
20180;DHT22;10249;48.900;9.090;2022-08-02T15:36:58;32.40;99.90
20180;DHT22;10249;48.900;9.090;2022-08-02T15:39:25;32.80;99.90
20180;DHT22;10249;48.900;9.090;2022-08-02T15:41:52;32.50;99.90
20180;DHT22;10249;48.900;9.090;2022-08-02T15:44:20;32.90;99.90
20180;DHT22;10249;48.900;9.090;2022-08-02T15:54:07;33.30;99.90
20180;DHT22;10249;48.900;9.090;2022-08-02T15:56:34;31.90;99.90
20180;DHT22;10249;48.900;9.090;2022-08-02T15:59:01;32.20;99.90
20180;DHT22;10249;48.900;9.090;2022-08-02T16:01:29;32.60;99.90
20180;DHT22;10249;48.900;9.090;2022-08-02T16:03:56;32.20;99.90
20180;DHT22;10249;48.900;9.090;2022-08-02T16:06:22;33.90;99.90
20180;DHT22;10249;48.900;9.090;2022-08-02T16:08:49;34.70;99.90
20180;DHT22;10249;48.900;9.090;2022-08-02T16:11:16;33.40;99.90
20180;DHT22;10249;48.900;9.090;2022-08-02T16:13:43;33.20;99.90
20180;DHT22;10249;48.900;9.090;2022-08-02T16:16:17;32.90;99.90
20180;DHT22;10249;48.900;9.090;2022-08-02T16:18:45;35.10;99.90
20180;DHT22;10249;48.900;9.090;2022-08-02T16:21:12;36.70;99.90
20180;DHT22;10249;48.900;9.090;2022-08-02T16:23:39;34.40;99.90
20180;DHT22;10249;48.900;9.090;2022-08-02T16:26:06;33.00;99.90
20180;DHT22;10249;48.900;9.090;2022-08-02T16:28:32;32.80;99.90
20180;DHT22;10249;48.900;9.090;2022-08-02T16:30:59;32.50;99.90
20180;DHT22;10249;48.900;9.090;2022-08-02T16:33:26;33.60;99.90
20180;DHT22;10249;48.900;9.090;2022-08-02T16:35:54;32.80;99.90
20180;DHT22;10249;48.900;9.090;2022-08-02T16:38:23;33.00;99.90
20180;DHT22;10249;48.900;9.090;2022-08-02T16:40:50;33.00;99.90
20180;DHT22;10249;48.900;9.090;2022-08-02T16:43:16;33.90;99.90
20180;DHT22;10249;48.900;9.090;2022-08-02T16:45:43;34.40;99.90
20180;DHT22;10249;48.900;9.090;2022-08-02T16:48:10;35.80;99.90
20180;DHT22;10249;48.900;9.090;2022-08-02T16:50:37;36.80;99.90
20180;DHT22;10249;48.900;9.090;2022-08-02T16:53:05;35.70;99.90
20180;DHT22;10249;48.900;9.090;2022-08-02T16:55:32;36.20;99.90